sensor_id;sensor_type;location;lat;lon;timestamp;P1;durP1;ratioP1;P2;durP2;ratioP2
24305;SDS011;12423;48.768;8.850;2024-03-29T00:01:39;667.60;;;350.63;;
24305;SDS011;12423;48.768;8.850;2024-03-29T00:04:05;666.50;;;344.67;;
24305;SDS011;12423;48.768;8.850;2024-03-29T00:06:31;666.17;;;344.30;;
24305;SDS011;12423;48.768;8.850;2024-03-29T00:08:57;672.08;;;363.20;;
24305;SDS011;12423;48.768;8.850;2024-03-29T00:11:22;671.45;;;356.13;;
24305;SDS011;12423;48.768;8.850;2024-03-29T00:13:48;671.95;;;364.65;;
24305;SDS011;12423;48.768;8.850;2024-03-29T00:16:14;684.85;;;398.48;;
24305;SDS011;12423;48.768;8.850;2024-03-29T00:18:41;686.05;;;394.95;;
24305;SDS011;12423;48.768;8.850;2024-03-29T00:21:07;671.92;;;359.50;;
24305;SDS011;12423;48.768;8.850;2024-03-29T00:23:32;677.53;;;369.80;;
24305;SDS011;12423;48.768;8.850;2024-03-29T00:25:58;668.90;;;352.75;;
24305;SDS011;12423;48.768;8.850;2024-03-29T00:28:24;677.35;;;372.50;;
24305;SDS011;12423;48.768;8.850;2024-03-29T00:30:50;679.00;;;376.23;;
24305;SDS011;12423;48.768;8.850;2024-03-29T00:33:15;670.20;;;353.55;;
24305;SDS011;12423;48.768;8.850;2024-03-29T00:35:42;668.15;;;340.42;;
24305;SDS011;12423;48.768;8.850;2024-03-29T00:38:08;671.03;;;348.67;;
24305;SDS011;12423;48.768;8.850;2024-03-29T00:40:35;664.15;;;335.10;;
24305;SDS011;12423;48.768;8.850;2024-03-29T00:43:01;665.28;;;339.35;;
24305;SDS011;12423;48.768;8.850;2024-03-29T00:45:26;662.10;;;333.45;;
24305;SDS011;12423;48.768;8.850;2024-03-29T00:47:52;670.33;;;359.23;;
24305;SDS011;12423;48.768;8.850;2024-03-29T00:50:18;664.40;;;348.47;;
24305;SDS011;12423;48.768;8.850;2024-03-29T00:52:45;667.67;;;343.35;;
24305;SDS011;12423;48.768;8.850;2024-03-29T00:55:11;663.63;;;341.55;;
24305;SDS011;12423;48.768;8.850;2024-03-29T00:57:37;661.90;;;332.33;;
24305;SDS011;12423;48.768;8.850;2024-03-29T01:00:03;672.03;;;356.47;;
24305;SDS011;12423;48.768;8.850;2024-03-29T01:02:29;669.72;;;352.15;;
24305;SDS011;12423;48.768;8.850;2024-03-29T01:04:55;663.23;;;339.27;;
24305;SDS011;12423;48.768;8.850;2024-03-29T01:07:20;662.37;;;337.07;;
24305;SDS011;12423;48.768;8.850;2024-03-29T01:09:47;668.77;;;348.80;;
24305;SDS011;12423;48.768;8.850;2024-03-29T01:12:13;667.10;;;347.08;;
24305;SDS011;12423;48.768;8.850;2024-03-29T01:14:39;666.22;;;349.27;;
24305;SDS011;12423;48.768;8.850;2024-03-29T01:17:04;662.07;;;341.30;;
24305;SDS011;12423;48.768;8.850;2024-03-29T01:19:30;666.47;;;349.80;;
24305;SDS011;12423;48.768;8.850;2024-03-29T01:21:56;666.43;;;345.47;;
24305;SDS011;12423;48.768;8.850;2024-03-29T01:24:22;671.90;;;366.37;;
24305;SDS011;12423;48.768;8.850;2024-03-29T01:26:49;665.73;;;345.93;;
24305;SDS011;12423;48.768;8.850;2024-03-29T01:29:14;666.55;;;344.67;;
24305;SDS011;12423;48.768;8.850;2024-03-29T01:31:40;670.97;;;360.90;;
24305;SDS011;12423;48.768;8.850;2024-03-29T01:34:06;676.07;;;370.73;;
24305;SDS011;12423;48.768;8.850;2024-03-29T01:36:32;664.23;;;339.50;;
24305;SDS011;12423;48.768;8.850;2024-03-29T01:38:57;670.73;;;352.60;;
24305;SDS011;12423;48.768;8.850;2024-03-29T01:41:23;669.20;;;347.13;;
24305;SDS011;12423;48.768;8.850;2024-03-29T01:43:50;658.97;;;318.40;;
24305;SDS011;12423;48.768;8.850;2024-03-29T01:46:17;657.72;;;323.95;;
24305;SDS011;12423;48.768;8.850;2024-03-29T01:48:45;681.65;;;377.70;;
24305;SDS011;12423;48.768;8.850;2024-03-29T01:51:12;675.88;;;366.67;;
24305;SDS011;12423;48.768;8.850;2024-03-29T01:53:40;677.42;;;370.98;;
24305;SDS011;12423;48.768;8.850;2024-03-29T01:56:06;680.70;;;376.60;;
24305;SDS011;12423;48.768;8.850;2024-03-29T01:58:33;680.67;;;379.70;;
24305;SDS011;12423;48.768;8.850;2024-03-29T02:01:02;682.80;;;385.65;;
24305;SDS011;12423;48.768;8.850;2024-03-29T02:03:29;674.05;;;368.13;;
24305;SDS011;12423;48.768;8.850;2024-03-29T02:05:57;680.10;;;375.40;;
24305;SDS011;12423;48.768;8.850;2024-03-29T02:08:25;682.53;;;391.85;;
24305;SDS011;12423;48.768;8.850;2024-03-29T02:10:51;677.17;;;374.65;;
24305;SDS011;12423;48.768;8.850;2024-03-29T02:13:18;682.60;;;387.88;;
24305;SDS011;12423;48.768;8.850;2024-03-29T02:15:44;664.67;;;344.42;;
24305;SDS011;12423;48.768;8.850;2024-03-29T02:18:12;662.25;;;335.25;;
24305;SDS011;12423;48.768;8.850;2024-03-29T02:20:39;660.00;;;331.30;;
24305;SDS011;12423;48.768;8.850;2024-03-29T02:23:06;660.75;;;332.25;;
24305;SDS011;12423;48.768;8.850;2024-03-29T02:25:34;667.70;;;350.33;;
24305;SDS011;12423;48.768;8.850;2024-03-29T02:28:02;667.28;;;345.23;;
24305;SDS011;12423;48.768;8.850;2024-03-29T02:30:29;666.05;;;342.05;;
24305;SDS011;12423;48.768;8.850;2024-03-29T02:32:56;659.25;;;327.75;;
24305;SDS011;12423;48.768;8.850;2024-03-29T02:35:23;660.35;;;326.63;;
24305;SDS011;12423;48.768;8.850;2024-03-29T02:37:50;663.65;;;338.70;;
24305;SDS011;12423;48.768;8.850;2024-03-29T02:40:16;663.13;;;337.42;;
24305;SDS011;12423;48.768;8.850;2024-03-29T02:42:44;659.40;;;328.05;;
24305;SDS011;12423;48.768;8.850;2024-03-29T02:45:11;658.00;;;320.77;;
24305;SDS011;12423;48.768;8.850;2024-03-29T02:47:38;662.20;;;336.37;;
24305;SDS011;12423;48.768;8.850;2024-03-29T02:50:05;666.73;;;346.10;;
24305;SDS011;12423;48.768;8.850;2024-03-29T02:52:31;662.15;;;336.98;;
24305;SDS011;12423;48.768;8.850;2024-03-29T02:54:57;663.75;;;340.55;;
24305;SDS011;12423;48.768;8.850;2024-03-29T02:57:23;661.53;;;334.53;;
24305;SDS011;12423;48.768;8.850;2024-03-29T02:59:51;664.30;;;343.70;;
24305;SDS011;12423;48.768;8.850;2024-03-29T03:02:16;662.08;;;335.13;;
24305;SDS011;12423;48.768;8.850;2024-03-29T03:04:43;661.38;;;338.13;;
24305;SDS011;12423;48.768;8.850;2024-03-29T03:07:09;662.67;;;340.75;;
24305;SDS011;12423;48.768;8.850;2024-03-29T03:09:53;664.05;;;345.65;;
24305;SDS011;12423;48.768;8.850;2024-03-29T03:12:37;667.97;;;352.85;;
24305;SDS011;12423;48.768;8.850;2024-03-29T03:15:06;663.65;;;335.85;;
24305;SDS011;12423;48.768;8.850;2024-03-29T03:17:32;659.25;;;330.92;;
24305;SDS011;12423;48.768;8.850;2024-03-29T03:19:59;665.53;;;348.50;;
24305;SDS011;12423;48.768;8.850;2024-03-29T03:22:25;665.03;;;344.10;;
24305;SDS011;12423;48.768;8.850;2024-03-29T03:24:51;667.08;;;355.77;;
24305;SDS011;12423;48.768;8.850;2024-03-29T03:27:17;665.83;;;357.00;;
24305;SDS011;12423;48.768;8.850;2024-03-29T03:29:43;668.22;;;357.98;;
24305;SDS011;12423;48.768;8.850;2024-03-29T03:32:10;665.47;;;352.70;;
24305;SDS011;12423;48.768;8.850;2024-03-29T03:34:37;666.53;;;359.80;;
24305;SDS011;12423;48.768;8.850;2024-03-29T03:37:03;662.70;;;343.75;;
24305;SDS011;12423;48.768;8.850;2024-03-29T03:39:29;665.95;;;358.75;;
24305;SDS011;12423;48.768;8.850;2024-03-29T03:41:55;665.88;;;352.92;;
24305;SDS011;12423;48.768;8.850;2024-03-29T03:44:22;661.92;;;342.67;;
24305;SDS011;12423;48.768;8.850;2024-03-29T03:46:50;664.38;;;342.02;;
24305;SDS011;12423;48.768;8.850;2024-03-29T03:49:17;662.85;;;343.33;;
24305;SDS011;12423;48.768;8.850;2024-03-29T03:51:43;663.00;;;343.65;;
24305;SDS011;12423;48.768;8.850;2024-03-29T03:54:10;662.65;;;339.00;;
24305;SDS011;12423;48.768;8.850;2024-03-29T03:56:35;660.43;;;333.90;;
24305;SDS011;12423;48.768;8.850;2024-03-29T03:59:02;658.17;;;323.65;;
24305;SDS011;12423;48.768;8.850;2024-03-29T04:01:27;657.90;;;324.83;;
24305;SDS011;12423;48.768;8.850;2024-03-29T04:03:54;660.10;;;334.92;;
24305;SDS011;12423;48.768;8.850;2024-03-29T04:06:21;664.45;;;351.48;;
24305;SDS011;12423;48.768;8.850;2024-03-29T04:08:48;666.88;;;358.92;;
24305;SDS011;12423;48.768;8.850;2024-03-29T04:11:14;665.00;;;352.92;;
24305;SDS011;12423;48.768;8.850;2024-03-29T04:13:41;666.90;;;358.27;;
24305;SDS011;12423;48.768;8.850;2024-03-29T04:16:07;670.60;;;375.17;;
24305;SDS011;12423;48.768;8.850;2024-03-29T04:18:34;669.25;;;371.60;;
24305;SDS011;12423;48.768;8.850;2024-03-29T04:20:59;668.70;;;365.23;;
24305;SDS011;12423;48.768;8.850;2024-03-29T04:23:28;667.38;;;365.85;;
24305;SDS011;12423;48.768;8.850;2024-03-29T04:25:53;668.40;;;370.13;;
24305;SDS011;12423;48.768;8.850;2024-03-29T04:28:20;673.67;;;386.52;;
24305;SDS011;12423;48.768;8.850;2024-03-29T04:30:50;673.37;;;379.67;;
24305;SDS011;12423;48.768;8.850;2024-03-29T04:33:17;668.40;;;368.35;;
24305;SDS011;12423;48.768;8.850;2024-03-29T04:35:49;674.50;;;386.15;;
24305;SDS011;12423;48.768;8.850;2024-03-29T04:38:16;676.03;;;396.35;;
24305;SDS011;12423;48.768;8.850;2024-03-29T04:40:44;679.17;;;408.77;;
24305;SDS011;12423;48.768;8.850;2024-03-29T04:43:10;679.85;;;412.40;;
24305;SDS011;12423;48.768;8.850;2024-03-29T04:45:37;684.10;;;422.67;;
24305;SDS011;12423;48.768;8.850;2024-03-29T04:48:05;678.38;;;409.58;;
24305;SDS011;12423;48.768;8.850;2024-03-29T04:50:32;678.95;;;411.27;;
24305;SDS011;12423;48.768;8.850;2024-03-29T04:52:58;682.30;;;418.58;;
24305;SDS011;12423;48.768;8.850;2024-03-29T04:55:25;677.20;;;406.90;;
24305;SDS011;12423;48.768;8.850;2024-03-29T04:57:53;672.97;;;387.02;;
24305;SDS011;12423;48.768;8.850;2024-03-29T05:00:20;668.30;;;376.35;;
24305;SDS011;12423;48.768;8.850;2024-03-29T05:02:46;670.17;;;371.35;;
24305;SDS011;12423;48.768;8.850;2024-03-29T05:05:13;669.38;;;375.13;;
24305;SDS011;12423;48.768;8.850;2024-03-29T05:07:40;671.47;;;383.02;;
24305;SDS011;12423;48.768;8.850;2024-03-29T05:10:07;671.85;;;388.25;;
24305;SDS011;12423;48.768;8.850;2024-03-29T05:12:34;676.08;;;401.70;;
24305;SDS011;12423;48.768;8.850;2024-03-29T05:15:03;676.75;;;402.33;;
24305;SDS011;12423;48.768;8.850;2024-03-29T05:17:29;675.67;;;402.15;;
24305;SDS011;12423;48.768;8.850;2024-03-29T05:19:56;679.05;;;404.90;;
24305;SDS011;12423;48.768;8.850;2024-03-29T05:22:22;680.90;;;413.02;;
24305;SDS011;12423;48.768;8.850;2024-03-29T05:24:49;681.45;;;421.27;;
24305;SDS011;12423;48.768;8.850;2024-03-29T05:27:18;678.77;;;409.57;;
24305;SDS011;12423;48.768;8.850;2024-03-29T05:29:45;680.00;;;426.07;;
24305;SDS011;12423;48.768;8.850;2024-03-29T05:32:13;683.40;;;418.80;;
24305;SDS011;12423;48.768;8.850;2024-03-29T05:34:39;680.47;;;420.83;;
24305;SDS011;12423;48.768;8.850;2024-03-29T05:37:06;674.45;;;401.15;;
24305;SDS011;12423;48.768;8.850;2024-03-29T05:39:33;676.17;;;402.23;;
24305;SDS011;12423;48.768;8.850;2024-03-29T05:42:00;675.97;;;403.17;;
24305;SDS011;12423;48.768;8.850;2024-03-29T05:44:26;675.72;;;398.00;;
24305;SDS011;12423;48.768;8.850;2024-03-29T05:46:53;678.17;;;409.05;;
24305;SDS011;12423;48.768;8.850;2024-03-29T05:49:21;680.35;;;416.42;;
24305;SDS011;12423;48.768;8.850;2024-03-29T05:51:47;679.72;;;415.10;;
24305;SDS011;12423;48.768;8.850;2024-03-29T05:54:16;678.50;;;410.17;;
24305;SDS011;12423;48.768;8.850;2024-03-29T05:56:42;681.25;;;422.50;;
24305;SDS011;12423;48.768;8.850;2024-03-29T05:59:09;685.20;;;435.85;;
24305;SDS011;12423;48.768;8.850;2024-03-29T06:01:37;687.15;;;444.55;;
24305;SDS011;12423;48.768;8.850;2024-03-29T06:04:04;683.78;;;434.17;;
24305;SDS011;12423;48.768;8.850;2024-03-29T06:06:40;683.70;;;435.23;;
24305;SDS011;12423;48.768;8.850;2024-03-29T06:09:06;686.20;;;439.38;;
24305;SDS011;12423;48.768;8.850;2024-03-29T06:11:33;690.23;;;461.23;;
24305;SDS011;12423;48.768;8.850;2024-03-29T06:14:00;687.65;;;455.33;;
24305;SDS011;12423;48.768;8.850;2024-03-29T06:16:44;688.10;;;454.70;;
24305;SDS011;12423;48.768;8.850;2024-03-29T06:19:28;691.03;;;462.08;;
24305;SDS011;12423;48.768;8.850;2024-03-29T06:21:57;691.83;;;464.20;;
24305;SDS011;12423;48.768;8.850;2024-03-29T06:24:23;691.78;;;469.67;;
24305;SDS011;12423;48.768;8.850;2024-03-29T06:26:50;690.97;;;466.60;;
24305;SDS011;12423;48.768;8.850;2024-03-29T06:29:18;692.00;;;473.85;;
24305;SDS011;12423;48.768;8.850;2024-03-29T06:31:44;694.60;;;483.10;;
24305;SDS011;12423;48.768;8.850;2024-03-29T06:34:11;694.97;;;489.15;;
24305;SDS011;12423;48.768;8.850;2024-03-29T06:36:37;695.42;;;490.98;;
24305;SDS011;12423;48.768;8.850;2024-03-29T06:39:05;695.85;;;492.33;;
24305;SDS011;12423;48.768;8.850;2024-03-29T06:41:33;699.10;;;508.42;;
24305;SDS011;12423;48.768;8.850;2024-03-29T06:44:00;704.83;;;521.03;;
24305;SDS011;12423;48.768;8.850;2024-03-29T06:46:27;703.95;;;523.90;;
24305;SDS011;12423;48.768;8.850;2024-03-29T06:48:53;707.20;;;537.58;;
24305;SDS011;12423;48.768;8.850;2024-03-29T06:51:20;704.60;;;539.55;;
24305;SDS011;12423;48.768;8.850;2024-03-29T06:53:46;700.25;;;525.13;;
24305;SDS011;12423;48.768;8.850;2024-03-29T06:56:14;706.42;;;543.63;;
24305;SDS011;12423;48.768;8.850;2024-03-29T06:58:41;707.20;;;549.47;;
24305;SDS011;12423;48.768;8.850;2024-03-29T07:01:08;708.42;;;552.70;;
24305;SDS011;12423;48.768;8.850;2024-03-29T07:03:34;708.85;;;556.72;;
24305;SDS011;12423;48.768;8.850;2024-03-29T07:06:02;707.85;;;554.67;;
24305;SDS011;12423;48.768;8.850;2024-03-29T07:08:29;709.00;;;554.25;;
24305;SDS011;12423;48.768;8.850;2024-03-29T07:10:58;706.53;;;549.90;;
24305;SDS011;12423;48.768;8.850;2024-03-29T07:13:28;701.70;;;525.35;;
24305;SDS011;12423;48.768;8.850;2024-03-29T07:15:54;704.00;;;525.70;;
24305;SDS011;12423;48.768;8.850;2024-03-29T07:18:21;698.47;;;505.63;;
24305;SDS011;12423;48.768;8.850;2024-03-29T07:20:48;699.85;;;499.67;;
24305;SDS011;12423;48.768;8.850;2024-03-29T07:23:14;691.17;;;473.70;;
24305;SDS011;12423;48.768;8.850;2024-03-29T07:25:41;688.43;;;470.33;;
24305;SDS011;12423;48.768;8.850;2024-03-29T07:28:07;692.50;;;482.17;;
24305;SDS011;12423;48.768;8.850;2024-03-29T07:30:36;695.80;;;489.70;;
24305;SDS011;12423;48.768;8.850;2024-03-29T07:33:03;695.90;;;486.55;;
24305;SDS011;12423;48.768;8.850;2024-03-29T07:35:30;693.10;;;475.35;;
24305;SDS011;12423;48.768;8.850;2024-03-29T07:37:57;687.58;;;457.02;;
24305;SDS011;12423;48.768;8.850;2024-03-29T07:40:24;687.35;;;456.73;;
24305;SDS011;12423;48.768;8.850;2024-03-29T07:42:51;684.78;;;440.42;;
24305;SDS011;12423;48.768;8.850;2024-03-29T07:45:18;682.58;;;433.20;;
24305;SDS011;12423;48.768;8.850;2024-03-29T07:47:46;687.17;;;450.60;;
24305;SDS011;12423;48.768;8.850;2024-03-29T07:50:17;682.78;;;434.00;;
24305;SDS011;12423;48.768;8.850;2024-03-29T07:52:44;682.70;;;433.83;;
24305;SDS011;12423;48.768;8.850;2024-03-29T07:55:11;687.42;;;451.35;;
24305;SDS011;12423;48.768;8.850;2024-03-29T07:57:37;685.83;;;452.38;;
24305;SDS011;12423;48.768;8.850;2024-03-29T08:00:04;681.47;;;424.73;;
24305;SDS011;12423;48.768;8.850;2024-03-29T08:02:31;672.90;;;389.10;;
24305;SDS011;12423;48.768;8.850;2024-03-29T08:05:00;672.97;;;380.45;;
24305;SDS011;12423;48.768;8.850;2024-03-29T08:07:27;666.77;;;363.33;;
24305;SDS011;12423;48.768;8.850;2024-03-29T08:09:53;662.75;;;347.73;;
24305;SDS011;12423;48.768;8.850;2024-03-29T08:12:20;660.40;;;339.30;;
24305;SDS011;12423;48.768;8.850;2024-03-29T08:14:46;662.42;;;341.67;;
24305;SDS011;12423;48.768;8.850;2024-03-29T08:17:14;666.47;;;352.60;;
24305;SDS011;12423;48.768;8.850;2024-03-29T08:19:40;660.85;;;342.30;;
24305;SDS011;12423;48.768;8.850;2024-03-29T08:22:09;667.25;;;356.30;;
24305;SDS011;12423;48.768;8.850;2024-03-29T08:24:36;664.50;;;356.83;;
24305;SDS011;12423;48.768;8.850;2024-03-29T08:27:03;670.53;;;372.00;;
24305;SDS011;12423;48.768;8.850;2024-03-29T08:29:30;669.28;;;374.85;;
24305;SDS011;12423;48.768;8.850;2024-03-29T08:31:56;674.33;;;388.30;;
24305;SDS011;12423;48.768;8.850;2024-03-29T08:34:23;672.45;;;391.88;;
24305;SDS011;12423;48.768;8.850;2024-03-29T08:36:49;675.67;;;397.73;;
24305;SDS011;12423;48.768;8.850;2024-03-29T08:39:16;681.58;;;426.90;;
24305;SDS011;12423;48.768;8.850;2024-03-29T08:41:43;682.88;;;436.58;;
24305;SDS011;12423;48.768;8.850;2024-03-29T08:44:11;684.72;;;444.27;;
24305;SDS011;12423;48.768;8.850;2024-03-29T08:46:37;687.10;;;452.10;;
24305;SDS011;12423;48.768;8.850;2024-03-29T08:49:04;688.47;;;453.23;;
24305;SDS011;12423;48.768;8.850;2024-03-29T08:51:31;682.78;;;441.45;;
24305;SDS011;12423;48.768;8.850;2024-03-29T08:53:57;686.43;;;449.93;;
24305;SDS011;12423;48.768;8.850;2024-03-29T08:56:25;688.63;;;461.57;;
24305;SDS011;12423;48.768;8.850;2024-03-29T08:58:52;687.45;;;458.38;;
24305;SDS011;12423;48.768;8.850;2024-03-29T09:01:19;688.30;;;459.52;;
24305;SDS011;12423;48.768;8.850;2024-03-29T09:03:45;690.30;;;472.02;;
24305;SDS011;12423;48.768;8.850;2024-03-29T09:06:12;689.08;;;464.10;;
24305;SDS011;12423;48.768;8.850;2024-03-29T09:08:39;691.33;;;471.33;;
24305;SDS011;12423;48.768;8.850;2024-03-29T09:11:07;690.65;;;472.63;;
24305;SDS011;12423;48.768;8.850;2024-03-29T09:13:37;686.50;;;453.73;;
24305;SDS011;12423;48.768;8.850;2024-03-29T09:16:04;686.15;;;454.75;;
24305;SDS011;12423;48.768;8.850;2024-03-29T09:18:31;686.13;;;458.50;;
24305;SDS011;12423;48.768;8.850;2024-03-29T09:20:57;687.47;;;457.48;;
24305;SDS011;12423;48.768;8.850;2024-03-29T09:23:25;688.47;;;467.40;;
24305;SDS011;12423;48.768;8.850;2024-03-29T09:25:52;687.35;;;458.90;;
24305;SDS011;12423;48.768;8.850;2024-03-29T09:28:19;684.28;;;447.65;;
24305;SDS011;12423;48.768;8.850;2024-03-29T09:30:48;684.83;;;450.77;;
24305;SDS011;12423;48.768;8.850;2024-03-29T09:33:14;683.08;;;441.88;;
24305;SDS011;12423;48.768;8.850;2024-03-29T09:35:41;688.05;;;452.42;;
24305;SDS011;12423;48.768;8.850;2024-03-29T09:38:08;687.70;;;463.27;;
24305;SDS011;12423;48.768;8.850;2024-03-29T09:40:35;690.40;;;481.50;;
24305;SDS011;12423;48.768;8.850;2024-03-29T09:43:02;692.58;;;486.48;;
24305;SDS011;12423;48.768;8.850;2024-03-29T09:45:31;691.78;;;479.10;;
24305;SDS011;12423;48.768;8.850;2024-03-29T09:48:01;690.03;;;472.23;;
24305;SDS011;12423;48.768;8.850;2024-03-29T09:50:28;691.63;;;477.52;;
24305;SDS011;12423;48.768;8.850;2024-03-29T09:52:55;693.85;;;493.05;;
24305;SDS011;12423;48.768;8.850;2024-03-29T09:55:22;699.88;;;511.75;;
24305;SDS011;12423;48.768;8.850;2024-03-29T09:57:49;701.38;;;522.65;;
24305;SDS011;12423;48.768;8.850;2024-03-29T10:00:16;704.45;;;529.70;;
24305;SDS011;12423;48.768;8.850;2024-03-29T10:02:43;703.45;;;533.47;;
24305;SDS011;12423;48.768;8.850;2024-03-29T10:05:12;701.03;;;527.22;;
24305;SDS011;12423;48.768;8.850;2024-03-29T10:07:39;702.10;;;525.50;;
24305;SDS011;12423;48.768;8.850;2024-03-29T10:10:06;706.03;;;534.33;;
24305;SDS011;12423;48.768;8.850;2024-03-29T10:12:33;707.25;;;541.20;;
24305;SDS011;12423;48.768;8.850;2024-03-29T10:14:59;709.72;;;557.83;;
24305;SDS011;12423;48.768;8.850;2024-03-29T10:17:34;712.90;;;570.75;;
24305;SDS011;12423;48.768;8.850;2024-03-29T10:20:03;718.47;;;594.50;;
24305;SDS011;12423;48.768;8.850;2024-03-29T10:22:35;733.33;;;622.95;;
24305;SDS011;12423;48.768;8.850;2024-03-29T10:25:02;726.58;;;625.97;;
24305;SDS011;12423;48.768;8.850;2024-03-29T10:27:29;729.22;;;643.15;;
24305;SDS011;12423;48.768;8.850;2024-03-29T10:29:56;749.38;;;667.50;;
24305;SDS011;12423;48.768;8.850;2024-03-29T10:32:23;762.45;;;680.28;;
24305;SDS011;12423;48.768;8.850;2024-03-29T10:34:49;776.60;;;694.03;;
24305;SDS011;12423;48.768;8.850;2024-03-29T10:37:16;801.08;;;717.92;;
24305;SDS011;12423;48.768;8.850;2024-03-29T10:39:52;803.22;;;720.05;;
24305;SDS011;12423;48.768;8.850;2024-03-29T10:42:19;827.45;;;743.05;;
24305;SDS011;12423;48.768;8.850;2024-03-29T10:44:46;802.17;;;719.22;;
24305;SDS011;12423;48.768;8.850;2024-03-29T10:47:15;812.72;;;729.33;;
24305;SDS011;12423;48.768;8.850;2024-03-29T10:49:44;834.03;;;749.90;;
24305;SDS011;12423;48.768;8.850;2024-03-29T10:52:11;853.58;;;768.65;;
24305;SDS011;12423;48.768;8.850;2024-03-29T10:54:39;861.78;;;776.83;;
24305;SDS011;12423;48.768;8.850;2024-03-29T10:57:09;865.70;;;780.70;;
24305;SDS011;12423;48.768;8.850;2024-03-29T10:59:39;866.78;;;781.78;;
24305;SDS011;12423;48.768;8.850;2024-03-29T11:02:10;892.20;;;806.00;;
24305;SDS011;12423;48.768;8.850;2024-03-29T11:04:38;875.83;;;790.63;;
24305;SDS011;12423;48.768;8.850;2024-03-29T11:07:06;887.42;;;802.03;;
24305;SDS011;12423;48.768;8.850;2024-03-29T11:09:33;889.30;;;803.72;;
24305;SDS011;12423;48.768;8.850;2024-03-29T11:12:01;900.33;;;814.35;;
24305;SDS011;12423;48.768;8.850;2024-03-29T11:18:24;908.10;;;822.05;;
24305;SDS011;12423;48.768;8.850;2024-03-29T11:20:52;900.40;;;814.42;;
24305;SDS011;12423;48.768;8.850;2024-03-29T11:23:19;907.70;;;821.03;;
24305;SDS011;12423;48.768;8.850;2024-03-29T11:25:48;915.87;;;829.27;;
24305;SDS011;12423;48.768;8.850;2024-03-29T11:28:14;909.30;;;822.88;;
24305;SDS011;12423;48.768;8.850;2024-03-29T11:30:47;919.83;;;833.08;;
24305;SDS011;12423;48.768;8.850;2024-03-29T11:33:29;918.72;;;832.38;;
24305;SDS011;12423;48.768;8.850;2024-03-29T11:35:56;912.07;;;825.80;;
24305;SDS011;12423;48.768;8.850;2024-03-29T11:38:28;919.53;;;832.25;;
24305;SDS011;12423;48.768;8.850;2024-03-29T11:41:00;906.50;;;820.10;;
24305;SDS011;12423;48.768;8.850;2024-03-29T11:43:28;918.03;;;831.45;;
24305;SDS011;12423;48.768;8.850;2024-03-29T11:45:54;913.17;;;827.08;;
24305;SDS011;12423;48.768;8.850;2024-03-29T11:48:23;906.08;;;820.25;;
24305;SDS011;12423;48.768;8.850;2024-03-29T11:50:52;916.72;;;830.40;;
24305;SDS011;12423;48.768;8.850;2024-03-29T11:53:19;912.20;;;825.83;;
24305;SDS011;12423;48.768;8.850;2024-03-29T11:55:45;905.10;;;819.20;;
24305;SDS011;12423;48.768;8.850;2024-03-29T11:58:12;904.90;;;819.03;;
24305;SDS011;12423;48.768;8.850;2024-03-29T12:00:40;907.38;;;821.28;;
24305;SDS011;12423;48.768;8.850;2024-03-29T12:03:09;924.22;;;837.45;;
24305;SDS011;12423;48.768;8.850;2024-03-29T12:05:36;913.38;;;827.17;;
24305;SDS011;12423;48.768;8.850;2024-03-29T12:08:04;922.72;;;836.25;;
24305;SDS011;12423;48.768;8.850;2024-03-29T12:10:31;925.92;;;839.15;;
24305;SDS011;12423;48.768;8.850;2024-03-29T12:12:57;928.00;;;841.20;;
24305;SDS011;12423;48.768;8.850;2024-03-29T12:15:24;944.22;;;856.25;;
24305;SDS011;12423;48.768;8.850;2024-03-29T12:17:54;947.90;;;860.50;;
24305;SDS011;12423;48.768;8.850;2024-03-29T12:20:20;942.53;;;855.13;;
24305;SDS011;12423;48.768;8.850;2024-03-29T12:22:47;944.42;;;856.97;;
24305;SDS011;12423;48.768;8.850;2024-03-29T12:25:15;946.25;;;858.65;;
24305;SDS011;12423;48.768;8.850;2024-03-29T12:27:42;945.88;;;858.50;;
24305;SDS011;12423;48.768;8.850;2024-03-29T12:30:09;949.83;;;862.07;;
24305;SDS011;12423;48.768;8.850;2024-03-29T12:32:36;951.53;;;863.83;;
24305;SDS011;12423;48.768;8.850;2024-03-29T12:35:07;951.35;;;863.88;;
24305;SDS011;12423;48.768;8.850;2024-03-29T12:37:33;961.83;;;873.95;;
24305;SDS011;12423;48.768;8.850;2024-03-29T12:40:00;951.95;;;864.38;;
24305;SDS011;12423;48.768;8.850;2024-03-29T12:42:31;959.15;;;871.40;;
24305;SDS011;12423;48.768;8.850;2024-03-29T12:44:57;948.35;;;860.95;;
24305;SDS011;12423;48.768;8.850;2024-03-29T12:47:24;955.72;;;868.03;;
24305;SDS011;12423;48.768;8.850;2024-03-29T12:49:51;962.90;;;874.90;;
24305;SDS011;12423;48.768;8.850;2024-03-29T12:52:19;949.03;;;861.42;;
24305;SDS011;12423;48.768;8.850;2024-03-29T12:54:46;953.63;;;866.20;;
24305;SDS011;12423;48.768;8.850;2024-03-29T12:57:12;962.17;;;874.17;;
24305;SDS011;12423;48.768;8.850;2024-03-29T12:59:40;967.10;;;878.88;;
24305;SDS011;12423;48.768;8.850;2024-03-29T13:02:08;966.85;;;878.85;;
24305;SDS011;12423;48.768;8.850;2024-03-29T13:04:34;958.70;;;870.97;;
24305;SDS011;12423;48.768;8.850;2024-03-29T13:07:01;959.28;;;871.60;;
24305;SDS011;12423;48.768;8.850;2024-03-29T13:09:27;971.80;;;883.50;;
24305;SDS011;12423;48.768;8.850;2024-03-29T13:11:54;986.97;;;898.08;;
24305;SDS011;12423;48.768;8.850;2024-03-29T13:14:21;1003.88;;;914.35;;
24305;SDS011;12423;48.768;8.850;2024-03-29T13:16:49;1028.55;;;937.83;;
24305;SDS011;12423;48.768;8.850;2024-03-29T13:19:16;1051.88;;;960.15;;
24305;SDS011;12423;48.768;8.850;2024-03-29T13:21:43;1066.88;;;974.50;;
24305;SDS011;12423;48.768;8.850;2024-03-29T13:24:09;1086.38;;;993.20;;
24305;SDS011;12423;48.768;8.850;2024-03-29T13:26:36;1092.60;;;999.13;;
24305;SDS011;12423;48.768;8.850;2024-03-29T13:29:02;1089.50;;;996.40;;
24305;SDS011;12423;48.768;8.850;2024-03-29T13:31:29;1097.68;;;999.90;;
24305;SDS011;12423;48.768;8.850;2024-03-29T13:33:59;1099.40;;;999.90;;
24305;SDS011;12423;48.768;8.850;2024-03-29T13:36:36;1106.25;;;999.90;;
24305;SDS011;12423;48.768;8.850;2024-03-29T13:39:03;1115.85;;;999.90;;
24305;SDS011;12423;48.768;8.850;2024-03-29T13:41:30;1132.05;;;999.90;;
24305;SDS011;12423;48.768;8.850;2024-03-29T13:43:56;1142.85;;;999.90;;
24305;SDS011;12423;48.768;8.850;2024-03-29T13:46:25;1168.45;;;999.90;;
24305;SDS011;12423;48.768;8.850;2024-03-29T13:48:51;1177.22;;;999.90;;
24305;SDS011;12423;48.768;8.850;2024-03-29T13:51:19;1170.53;;;999.90;;
24305;SDS011;12423;48.768;8.850;2024-03-29T13:53:46;1170.72;;;999.90;;
24305;SDS011;12423;48.768;8.850;2024-03-29T13:56:12;1165.07;;;999.90;;
24305;SDS011;12423;48.768;8.850;2024-03-29T13:58:39;1157.95;;;999.90;;
24305;SDS011;12423;48.768;8.850;2024-03-29T14:01:05;1169.68;;;999.90;;